Ghaziabad Weather



Ghaziabad's Current Weather

Temprature 29.35o clear sky

clear sky

Rain: 0 %

Min Temprature29.35o
Max Temprature29.35o
Humidity60
Wind Speed3.09 m/h
Sun Rise05:59:15
Sun Set18:01:36
Current Time: 26-Sep-2022 09:11:42
Lat/Lon: 30.3982, 72.7553




Ghaziabad's Geo Location



Ghaziabad's Weather Forecast

Time Overall Temp Min Temp Max Temp Humidity Wind Speed Rain
26-Sep-2022 (Mon)
11:00:00 clear sky 28.890 28.890 33.710 61 1.86 m/h 0 %
14:00:00 clear sky 33.310 33.310 36.720 44 1.85 m/h 0 %
17:00:00 clear sky 34.790 34.790 34.790 35 0.97 m/h 0 %
20:00:00 light rain 28.950 28.950 28.950 50 2.41 m/h 19 %
23:00:00 clear sky 27.160 27.160 27.160 56 1.8 m/h 0 %
27-Sep-2022 (Tue)
02:00:00 clear sky 26.250 26.250 26.250 61 2.52 m/h 0 %
05:00:00 clear sky 25.320 25.320 25.320 67 2.18 m/h 0 %
08:00:00 clear sky 29.640 29.640 29.640 53 2.19 m/h 0 %
11:00:00 clear sky 36.080 36.080 36.080 25 3.68 m/h 0 %
14:00:00 clear sky 38.620 38.620 38.620 19 4.36 m/h 0 %
17:00:00 clear sky 36.710 36.710 36.710 22 4.41 m/h 0 %
20:00:00 clear sky 30.580 30.580 30.580 32 3.66 m/h 0 %
23:00:00 clear sky 28.720 28.720 28.720 36 2.97 m/h 0 %
28-Sep-2022 (Wed)
02:00:00 clear sky 26.150 26.150 26.150 43 2.01 m/h 0 %
05:00:00 clear sky 25.340 25.340 25.340 44 1.46 m/h 0 %
08:00:00 clear sky 29.290 29.290 29.290 35 3.13 m/h 0 %
11:00:00 clear sky 36.680 36.680 36.680 24 4.61 m/h 0 %
14:00:00 clear sky 38.640 38.640 38.640 20 4.79 m/h 0 %
17:00:00 clear sky 36.400 36.400 36.400 23 4.16 m/h 0 %
20:00:00 clear sky 30.450 30.450 30.450 32 3.7 m/h 0 %
23:00:00 clear sky 28.640 28.640 28.640 36 3.59 m/h 0 %
29-Sep-2022 (Thu)
02:00:00 clear sky 26.610 26.610 26.610 32 2.9 m/h 0 %
05:00:00 clear sky 24.310 24.310 24.310 37 1.34 m/h 0 %
08:00:00 clear sky 28.640 28.640 28.640 31 2.66 m/h 0 %
11:00:00 clear sky 36.800 36.800 36.800 22 4.55 m/h 0 %
14:00:00 clear sky 38.500 38.500 38.500 19 4.9 m/h 0 %
17:00:00 clear sky 36.090 36.090 36.090 23 4.31 m/h 0 %
20:00:00 clear sky 29.780 29.780 29.780 32 3.4 m/h 0 %
23:00:00 clear sky 28.080 28.080 28.080 33 3.39 m/h 0 %
30-Sep-2022 (Fri)
02:00:00 clear sky 26.350 26.350 26.350 34 3.58 m/h 0 %
05:00:00 clear sky 24.690 24.690 24.690 34 2.6 m/h 0 %
08:00:00 clear sky 29.210 29.210 29.210 33 3.28 m/h 0 %
11:00:00 clear sky 36.760 36.760 36.760 21 4.89 m/h 0 %
14:00:00 clear sky 38.790 38.790 38.790 17 4.83 m/h 0 %
17:00:00 clear sky 36.450 36.450 36.450 20 4.06 m/h 0 %
20:00:00 clear sky 29.910 29.910 29.910 30 3.65 m/h 0 %
23:00:00 clear sky 28.390 28.390 28.390 33 3.72 m/h 0 %
01-Oct-2022 (Sat)
02:00:00 clear sky 26.700 26.700 26.700 39 3.73 m/h 0 %
05:00:00 clear sky 25.440 25.440 25.440 43 3.34 m/h 0 %
08:00:00 clear sky 29.820 29.820 29.820 34 4.56 m/h 0 %

Famous Cities (61)